Almaty, Kazakhstan
Current Conditions -  °F | °C
As of 1:00 AM on Monday 24 Nov 2014 (Local Time) from UAAA Reporting Station
Smoke Smoke  
Wind Chill: -2°   Ceiling: 20000
Heat Index:   Visibility: 0.28mi
Dew Point: -3°   Wind: 4mph
Humidity: 80%   Direction: 230°SW
Pressure: 29.85"   Gusts: NA
Location:  43.32°N, 76.92°E
Report Text: UAAA 231900Z 23002MPS 0450 R23R/1300N R23L/1200D BR FU SCT100BKN200 M00/M03 Q1011 R88/CLRD65 NOSIG
Loading
Personal Weather Stations






























Interactive Weather Map New forecast layout! Learn more

10-Day Weather Forecast

Advertisements
Track Severe Weather on mobile